Time;durP1;ratioP1;P1;durP2;ratioP2;P2;SDS_P1;SDS_P2;PMS_P1;PMS_P2;Temp;Humidity;BMP_temperature;BMP_pressure;BME280_temperature;BME280_humidity;BME280_pressure;Samples;Min_cycle;Max_cycle;Signal;HPM_P1;HPM_P2
2023/07/08 00:01:18;;;;;;;12.68;6.55;;;;;;;;;;6146704;23;20069;-69
2023/07/08 00:03:44;;;;;;;12.40;6.75;;;;;;;;;;6146876;23;20461;-68
2023/07/08 00:06:19;;;;;;;18.48;6.72;;;;;;;;;;6146410;23;20449;-69
2023/07/08 00:08:45;;;;;;;14.40;6.10;;;;;;;;;;6146805;23;20338;-69
2023/07/08 00:11:13;;;;;;;10.93;6.38;;;;;;;;;;6144800;23;20423;-68
2023/07/08 00:13:38;;;;;;;14.05;7.15;;;;;;;;;;6146707;23;20144;-69
2023/07/08 00:16:04;;;;;;;13.02;6.60;;;;;;;;;;6147264;23;20008;-68
2023/07/08 00:18:30;;;;;;;13.02;6.18;;;;;;;;;;6148066;23;20013;-68
2023/07/08 00:20:56;;;;;;;13.75;6.50;;;;;;;;;;6147542;23;20423;-68
2023/07/08 00:23:22;;;;;;;16.88;6.95;;;;;;;;;;6147458;23;20127;-68
2023/07/08 00:25:48;;;;;;;19.20;7.60;;;;;;;;;;6170602;22;20101;-69
2023/07/08 00:28:17;;;;;;;23.75;7.55;;;;;;;;;;6146950;23;20062;-70
2023/07/08 00:30:43;;;;;;;24.17;7.93;;;;;;;;;;6147247;23;20446;-70
2023/07/08 00:33:09;;;;;;;21.00;6.70;;;;;;;;;;6147234;22;20018;-70
2023/07/08 00:35:37;;;;;;;10.18;5.88;;;;;;;;;;6147347;23;20073;-68
2023/07/08 00:38:27;;;;;;;15.77;6.30;;;;;;;;;;6147113;23;20009;-69
2023/07/08 00:41:09;;;;;;;16.27;6.20;;;;;;;;;;6145934;23;20355;-68
2023/07/08 00:43:52;;;;;;;16.70;6.80;;;;;;;;;;6145720;23;20006;-69
2023/07/08 00:46:31;;;;;;;13.90;6.28;;;;;;;;;;6120893;23;20017;-69
2023/07/08 00:49:06;;;;;;;12.68;5.90;;;;;;;;;;6147568;23;20010;-69
2023/07/08 00:51:33;;;;;;;13.82;6.15;;;;;;;;;;6121270;23;20465;-70
2023/07/08 00:53:59;;;;;;;11.20;6.68;;;;;;;;;;6121055;23;20259;-69
2023/07/08 00:56:35;;;;;;;14.77;7.38;;;;;;;;;;6147166;23;20466;-70
2023/07/08 00:59:06;;;;;;;9.27;5.75;;;;;;;;;;6145616;23;20017;-69
2023/07/08 01:01:36;;;;;;;9.95;6.15;;;;;;;;;;6147657;23;20028;-69
2023/07/08 01:04:08;;;;;;;7.57;6.00;;;;;;;;;;6170313;23;20439;-69
2023/07/08 01:06:39;;;;;;;9.90;5.78;;;;;;;;;;6145227;23;20014;-69
2023/07/08 01:09:08;;;;;;;8.02;6.60;;;;;;;;;;6145225;23;20022;-68
2023/07/08 01:11:37;;;;;;;7.55;5.90;;;;;;;;;;6120304;23;20014;-68
2023/07/08 01:14:05;;;;;;;13.55;6.50;;;;;;;;;;6146333;23;20473;-69
2023/07/08 01:16:33;;;;;;;12.13;7.05;;;;;;;;;;6119945;23;20404;-69
2023/07/08 01:19:06;;;;;;;10.82;6.20;;;;;;;;;;6168744;23;20013;-68
2023/07/08 01:21:36;;;;;;;8.90;5.65;;;;;;;;;;6147260;23;20036;-68
2023/07/08 01:24:06;;;;;;;12.88;5.90;;;;;;;;;;6145566;23;20045;-68
2023/07/08 01:26:34;;;;;;;10.35;5.95;;;;;;;;;;6120961;23;20424;-68
2023/07/08 01:29:01;;;;;;;11.85;6.40;;;;;;;;;;6120532;23;20025;-68
2023/07/08 01:31:27;;;;;;;11.93;6.25;;;;;;;;;;6147029;23;20033;-68
2023/07/08 01:33:53;;;;;;;8.65;6.30;;;;;;;;;;6146978;22;20016;-69
2023/07/08 01:36:19;;;;;;;9.73;6.50;;;;;;;;;;6169152;23;20013;-69
2023/07/08 01:38:46;;;;;;;7.28;6.32;;;;;;;;;;6145410;23;20447;-68
2023/07/08 01:41:14;;;;;;;7.22;6.07;;;;;;;;;;6146570;23;20008;-68
2023/07/08 01:43:39;;;;;;;10.50;5.70;;;;;;;;;;6120771;23;20022;-68
2023/07/08 01:46:36;;;;;;;10.15;5.68;;;;;;;;;;6146470;22;20016;-67
2023/07/08 01:49:02;;;;;;;9.48;6.20;;;;;;;;;;6147144;23;20382;-67
2023/07/08 01:51:28;;;;;;;9.60;6.40;;;;;;;;;;6148157;22;20043;-68
2023/07/08 01:53:54;;;;;;;8.20;5.82;;;;;;;;;;6121930;23;20017;-67
2023/07/08 01:56:19;;;;;;;10.95;5.65;;;;;;;;;;6121538;23;20090;-67
2023/07/08 01:58:46;;;;;;;9.20;5.38;;;;;;;;;;6171702;23;20021;-67
2023/07/08 02:01:12;;;;;;;7.82;5.85;;;;;;;;;;6122352;23;20024;-67
2023/07/08 02:03:38;;;;;;;8.98;5.65;;;;;;;;;;6146840;23;20013;-67
2023/07/08 02:06:04;;;;;;;9.55;5.63;;;;;;;;;;6121674;23;20008;-67
2023/07/08 02:08:30;;;;;;;6.85;5.50;;;;;;;;;;6146777;23;20025;-68
2023/07/08 02:10:57;;;;;;;7.60;5.57;;;;;;;;;;6122152;23;20037;-67
2023/07/08 02:13:24;;;;;;;9.25;6.07;;;;;;;;;;6148142;23;20273;-67
2023/07/08 02:15:51;;;;;;;6.68;5.80;;;;;;;;;;6171223;23;20090;-67
2023/07/08 02:18:20;;;;;;;9.07;5.78;;;;;;;;;;6148109;23;20029;-67
2023/07/08 02:20:47;;;;;;;6.70;5.35;;;;;;;;;;6148408;23;20005;-67
2023/07/08 02:23:14;;;;;;;9.68;5.22;;;;;;;;;;6148064;23;20005;-67
2023/07/08 02:25:39;;;;;;;8.30;5.25;;;;;;;;;;6121842;23;20043;-67
2023/07/08 02:28:05;;;;;;;8.18;5.47;;;;;;;;;;6121968;23;20014;-67
2023/07/08 02:30:31;;;;;;;10.10;5.40;;;;;;;;;;6147836;23;20447;-68
2023/07/08 02:32:58;;;;;;;12.15;5.45;;;;;;;;;;6122386;23;20037;-67
2023/07/08 02:35:27;;;;;;;11.32;6.63;;;;;;;;;;6121727;23;20344;-67
2023/07/08 02:37:54;;;;;;;12.65;6.85;;;;;;;;;;6147988;23;20024;-68
2023/07/08 02:40:20;;;;;;;8.77;5.53;;;;;;;;;;6171713;23;20010;-67
2023/07/08 02:42:46;;;;;;;9.48;6.40;;;;;;;;;;6148400;22;20411;-68
2023/07/08 02:45:12;;;;;;;7.60;5.95;;;;;;;;;;6148499;23;20105;-68
2023/07/08 02:47:38;;;;;;;10.13;6.35;;;;;;;;;;6148043;23;20013;-67
2023/07/08 02:50:05;;;;;;;11.65;6.60;;;;;;;;;;6122720;23;20063;-67
2023/07/08 02:52:31;;;;;;;14.23;6.40;;;;;;;;;;6124187;23;20447;-66
2023/07/08 02:54:56;;;;;;;8.48;6.18;;;;;;;;;;6123910;23;20023;-67
2023/07/08 02:57:22;;;;;;;12.75;6.65;;;;;;;;;;6124196;23;20036;-68
2023/07/08 02:59:48;;;;;;;10.38;6.32;;;;;;;;;;6124962;23;20033;-68
2023/07/08 03:02:15;;;;;;;9.50;7.05;;;;;;;;;;6150493;23;20422;-67
2023/07/08 03:04:40;;;;;;;13.57;7.25;;;;;;;;;;6150699;23;20051;-67
2023/07/08 03:07:11;;;;;;;8.52;6.47;;;;;;;;;;6150828;23;20017;-67
2023/07/08 03:09:38;;;;;;;10.48;6.13;;;;;;;;;;6173878;23;20021;-68
2023/07/08 03:12:06;;;;;;;14.50;6.53;;;;;;;;;;6124053;23;20005;-68
2023/07/08 03:14:32;;;;;;;9.23;6.10;;;;;;;;;;6150437;23;20033;-68
2023/07/08 03:16:58;;;;;;;9.27;6.50;;;;;;;;;;6124439;23;20006;-68
2023/07/08 03:19:23;;;;;;;14.13;6.07;;;;;;;;;;6124483;23;20020;-68
2023/07/08 03:21:49;;;;;;;8.85;5.38;;;;;;;;;;6124652;23;20640;-67
2023/07/08 03:24:18;;;;;;;10.27;5.35;;;;;;;;;;6150596;23;20112;-68
2023/07/08 03:26:45;;;;;;;5.80;4.70;;;;;;;;;;6123874;23;20013;-68
2023/07/08 03:29:17;;;;;;;8.50;4.65;;;;;;;;;;6123905;23;20036;-67
2023/07/08 03:31:45;;;;;;;13.00;4.97;;;;;;;;;;6147986;23;20096;-67
2023/07/08 03:34:13;;;;;;;5.85;4.32;;;;;;;;;;6173383;23;20009;-67
2023/07/08 03:36:51;;;;;;;7.82;5.15;;;;;;;;;;6172837;23;20014;-67
2023/07/08 03:39:20;;;;;;;8.18;4.55;;;;;;;;;;6123973;23;20041;-67
2023/07/08 03:41:48;;;;;;;12.65;4.47;;;;;;;;;;6123770;23;20439;-67
2023/07/08 03:44:17;;;;;;;5.50;4.00;;;;;;;;;;6148554;23;20024;-67
2023/07/08 03:46:49;;;;;;;8.73;5.05;;;;;;;;;;6123819;23;20017;-68
2023/07/08 03:49:21;;;;;;;6.53;4.35;;;;;;;;;;6149966;23;20018;-67
2023/07/08 03:51:49;;;;;;;10.90;4.80;;;;;;;;;;6124056;23;20071;-67
2023/07/08 03:54:18;;;;;;;8.73;4.45;;;;;;;;;;6123865;23;20406;-67
2023/07/08 03:56:45;;;;;;;7.03;4.45;;;;;;;;;;6172822;22;20347;-67
2023/07/08 03:59:11;;;;;;;8.73;4.60;;;;;;;;;;6173123;23;20028;-67
2023/07/08 04:01:41;;;;;;;8.50;4.90;;;;;;;;;;6148277;23;20020;-67
2023/07/08 04:04:12;;;;;;;13.75;5.03;;;;;;;;;;6123889;23;20335;-67
2023/07/08 04:06:38;;;;;;;8.45;4.88;;;;;;;;;;6123588;23;20009;-68
2023/07/08 04:09:04;;;;;;;17.38;5.15;;;;;;;;;;6123690;23;20016;-68
2023/07/08 04:11:30;;;;;;;6.57;4.75;;;;;;;;;;6149562;23;20071;-67
2023/07/08 04:13:55;;;;;;;9.27;5.18;;;;;;;;;;6149773;23;19998;-66
2023/07/08 04:16:23;;;;;;;8.52;4.70;;;;;;;;;;6149459;23;20092;-68
2023/07/08 04:18:50;;;;;;;16.02;5.07;;;;;;;;;;6150081;23;20077;-68
2023/07/08 04:21:17;;;;;;;9.35;4.90;;;;;;;;;;6149646;23;20014;-67
2023/07/08 04:23:43;;;;;;;10.40;4.43;;;;;;;;;;6149444;23;20006;-67
2023/07/08 04:26:09;;;;;;;14.27;5.43;;;;;;;;;;6150027;23;20018;-68
2023/07/08 04:28:35;;;;;;;9.20;5.30;;;;;;;;;;6149825;23;20008;-67
2023/07/08 04:31:01;;;;;;;11.93;5.05;;;;;;;;;;6123709;23;20014;-67
2023/07/08 04:33:27;;;;;;;11.15;4.63;;;;;;;;;;6149435;23;20001;-67
2023/07/08 04:35:54;;;;;;;9.48;5.15;;;;;;;;;;6149753;23;20020;-68
2023/07/08 04:38:22;;;;;;;11.55;5.00;;;;;;;;;;6149667;23;20371;-68
2023/07/08 04:40:50;;;;;;;9.60;4.50;;;;;;;;;;6149464;23;20436;-68
2023/07/08 04:43:16;;;;;;;10.98;4.80;;;;;;;;;;6149751;23;20358;-68
2023/07/08 04:45:45;;;;;;;8.80;4.05;;;;;;;;;;6147776;23;20017;-68
2023/07/08 04:48:14;;;;;;;8.82;4.22;;;;;;;;;;6149467;23;20033;-68
2023/07/08 04:50:41;;;;;;;7.85;3.85;;;;;;;;;;6149558;23;20521;-68
2023/07/08 04:53:07;;;;;;;9.95;4.45;;;;;;;;;;6149302;23;20037;-67
2023/07/08 04:55:39;;;;;;;12.20;3.90;;;;;;;;;;6151158;23;20020;-68
2023/07/08 04:58:05;;;;;;;10.03;4.03;;;;;;;;;;6151373;23;20339;-68
2023/07/08 05:00:31;;;;;;;6.55;3.30;;;;;;;;;;6125247;23;20220;-67
2023/07/08 05:02:56;;;;;;;8.93;3.90;;;;;;;;;;6151188;23;20076;-68
2023/07/08 05:05:22;;;;;;;10.80;4.03;;;;;;;;;;6150523;23;20005;-67
2023/07/08 05:07:49;;;;;;;7.30;3.53;;;;;;;;;;6150477;23;20013;-66
2023/07/08 05:10:15;;;;;;;7.57;4.35;;;;;;;;;;6150667;23;20044;-68
2023/07/08 05:12:42;;;;;;;5.65;3.65;;;;;;;;;;6150755;23;20437;-67
2023/07/08 05:15:08;;;;;;;12.43;3.95;;;;;;;;;;6150641;23;20039;-67
2023/07/08 05:17:34;;;;;;;6.43;4.10;;;;;;;;;;6150648;23;20017;-68
2023/07/08 05:20:00;;;;;;;6.13;3.80;;;;;;;;;;6150304;23;20548;-67
2023/07/08 05:22:27;;;;;;;8.30;4.18;;;;;;;;;;6151030;23;20374;-68
2023/07/08 05:24:55;;;;;;;7.72;4.03;;;;;;;;;;6124494;23;20002;-67
2023/07/08 05:27:22;;;;;;;8.10;4.32;;;;;;;;;;6150151;23;20009;-67
2023/07/08 05:29:49;;;;;;;7.30;3.92;;;;;;;;;;6151131;23;20304;-67
2023/07/08 05:32:15;;;;;;;12.00;3.90;;;;;;;;;;6150461;23;20009;-67
2023/07/08 05:34:40;;;;;;;12.20;3.55;;;;;;;;;;6150076;23;20081;-67
2023/07/08 05:37:06;;;;;;;6.47;3.80;;;;;;;;;;6150196;23;20013;-67
2023/07/08 05:39:32;;;;;;;9.15;3.83;;;;;;;;;;6150379;22;20006;-68
2023/07/08 05:41:58;;;;;;;6.00;4.03;;;;;;;;;;6151183;22;20014;-68
2023/07/08 05:44:24;;;;;;;9.43;3.95;;;;;;;;;;6150633;23;20044;-66
2023/07/08 05:46:50;;;;;;;7.28;3.55;;;;;;;;;;6150304;23;20056;-67
2023/07/08 05:49:16;;;;;;;8.18;3.88;;;;;;;;;;6150143;23;20005;-67
2023/07/08 05:51:44;;;;;;;5.53;3.60;;;;;;;;;;6151276;23;20425;-67
2023/07/08 05:54:10;;;;;;;4.70;3.58;;;;;;;;;;6150460;23;20069;-67
2023/07/08 05:56:36;;;;;;;7.60;3.45;;;;;;;;;;6150258;23;20028;-67
2023/07/08 05:59:01;;;;;;;9.75;4.47;;;;;;;;;;6150924;23;20105;-69
2023/07/08 06:01:27;;;;;;;8.07;3.78;;;;;;;;;;6150080;23;20013;-68
2023/07/08 06:03:53;;;;;;;7.75;3.60;;;;;;;;;;6150061;23;19998;-67
2023/07/08 06:06:18;;;;;;;7.07;4.00;;;;;;;;;;6149404;23;20073;-67
2023/07/08 06:08:44;;;;;;;6.28;3.35;;;;;;;;;;6150682;23;19997;-67
2023/07/08 06:11:10;;;;;;;20.92;4.65;;;;;;;;;;6149986;23;20059;-67
2023/07/08 06:13:35;;;;;;;7.30;4.25;;;;;;;;;;6150270;23;20005;-67
2023/07/08 06:16:01;;;;;;;8.82;4.63;;;;;;;;;;6150612;23;20037;-67
2023/07/08 06:18:27;;;;;;;5.32;3.78;;;;;;;;;;6150641;23;20330;-67
2023/07/08 06:20:57;;;;;;;5.43;3.80;;;;;;;;;;6150402;23;20442;-67
2023/07/08 06:23:23;;;;;;;7.90;3.83;;;;;;;;;;6150579;23;20339;-67
2023/07/08 06:25:49;;;;;;;5.10;3.78;;;;;;;;;;6146268;23;20002;-67
2023/07/08 06:28:15;;;;;;;5.68;3.80;;;;;;;;;;6147114;23;20006;-68
2023/07/08 06:30:41;;;;;;;11.05;4.20;;;;;;;;;;6148121;22;20199;-68
2023/07/08 06:33:07;;;;;;;5.95;4.15;;;;;;;;;;6148090;22;20091;-68
2023/07/08 06:35:32;;;;;;;6.47;3.50;;;;;;;;;;6147471;23;20013;-68
2023/07/08 06:37:58;;;;;;;8.38;3.95;;;;;;;;;;6148117;23;20019;-69
2023/07/08 06:40:24;;;;;;;8.90;3.95;;;;;;;;;;6148681;23;20402;-68
2023/07/08 06:42:50;;;;;;;5.32;3.50;;;;;;;;;;6147630;23;20017;-68
2023/07/08 06:45:27;;;;;;;8.15;3.45;;;;;;;;;;6121636;23;20005;-68
2023/07/08 06:47:53;;;;;;;7.38;4.03;;;;;;;;;;6147250;22;20507;-68
2023/07/08 06:50:18;;;;;;;6.78;3.80;;;;;;;;;;6147796;23;20031;-68
2023/07/08 06:52:44;;;;;;;7.38;3.97;;;;;;;;;;6145003;23;20347;-68
2023/07/08 06:55:11;;;;;;;9.65;3.58;;;;;;;;;;6147505;23;20018;-68
2023/07/08 06:57:38;;;;;;;8.73;4.50;;;;;;;;;;6146740;23;20350;-68
2023/07/08 07:00:09;;;;;;;5.68;4.20;;;;;;;;;;6147291;23;20009;-68
2023/07/08 07:02:35;;;;;;;9.63;4.28;;;;;;;;;;6147191;23;20013;-68
2023/07/08 07:05:01;;;;;;;5.22;3.63;;;;;;;;;;6147616;23;20072;-68
2023/07/08 07:07:27;;;;;;;5.50;3.95;;;;;;;;;;6146834;23;20361;-69
2023/07/08 07:09:54;;;;;;;4.65;3.67;;;;;;;;;;6147100;23;19998;-68
2023/07/08 07:12:20;;;;;;;4.93;3.42;;;;;;;;;;6147103;22;20025;-67
2023/07/08 07:14:46;;;;;;;7.35;3.63;;;;;;;;;;6146069;23;20435;-67
2023/07/08 07:17:12;;;;;;;5.80;3.80;;;;;;;;;;6146678;23;20315;-67
2023/07/08 07:19:38;;;;;;;5.90;3.80;;;;;;;;;;6146967;23;20006;-67
2023/07/08 07:22:05;;;;;;;4.57;3.50;;;;;;;;;;6147007;23;20017;-67
2023/07/08 07:24:31;;;;;;;5.75;3.58;;;;;;;;;;6147147;22;20007;-69
2023/07/08 07:26:57;;;;;;;4.13;3.13;;;;;;;;;;6146771;23;20016;-68
2023/07/08 07:29:23;;;;;;;8.55;3.95;;;;;;;;;;6147292;23;20001;-69
2023/07/08 07:31:49;;;;;;;7.20;4.15;;;;;;;;;;6146768;23;20070;-69
2023/07/08 07:34:15;;;;;;;5.93;3.65;;;;;;;;;;6146742;23;20092;-68
2023/07/08 07:36:41;;;;;;;7.47;3.72;;;;;;;;;;6147003;23;20253;-68
2023/07/08 07:39:06;;;;;;;7.50;3.90;;;;;;;;;;6146756;23;20016;-68
2023/07/08 07:41:32;;;;;;;7.63;3.72;;;;;;;;;;6147357;23;20075;-66
2023/07/08 07:43:58;;;;;;;5.43;3.47;;;;;;;;;;6149059;23;20084;-67
2023/07/08 07:46:24;;;;;;;5.68;3.60;;;;;;;;;;6149310;23;20014;-67
2023/07/08 07:48:49;;;;;;;6.32;3.90;;;;;;;;;;6150118;23;20015;-67
2023/07/08 07:51:15;;;;;;;5.68;3.42;;;;;;;;;;6123605;23;20082;-67
2023/07/08 07:53:41;;;;;;;5.10;3.88;;;;;;;;;;6149685;23;20052;-67
2023/07/08 07:56:07;;;;;;;5.47;4.20;;;;;;;;;;6149123;23;20428;-67
2023/07/08 07:58:33;;;;;;;5.07;3.65;;;;;;;;;;6149397;23;20093;-68
2023/07/08 08:00:59;;;;;;;5.75;3.58;;;;;;;;;;6149462;23;20017;-67
2023/07/08 08:03:25;;;;;;;6.38;4.68;;;;;;;;;;6149235;23;20136;-68
2023/07/08 08:05:51;;;;;;;7.57;3.97;;;;;;;;;;6148885;23;20336;-67
2023/07/08 08:08:19;;;;;;;4.97;3.58;;;;;;;;;;6148503;23;20014;-68
2023/07/08 08:10:45;;;;;;;5.25;3.88;;;;;;;;;;6148706;23;20014;-67
2023/07/08 08:13:11;;;;;;;6.57;4.25;;;;;;;;;;6149412;22;20029;-67
2023/07/08 08:15:37;;;;;;;9.02;3.67;;;;;;;;;;6148610;23;20013;-68
2023/07/08 08:18:03;;;;;;;5.13;3.70;;;;;;;;;;6148227;23;20005;-67
2023/07/08 08:20:30;;;;;;;6.70;3.92;;;;;;;;;;6146858;22;20255;-68
2023/07/08 08:22:55;;;;;;;4.60;3.35;;;;;;;;;;6145897;23;20016;-68
2023/07/08 08:25:23;;;;;;;8.27;3.92;;;;;;;;;;6146875;23;20084;-67
2023/07/08 08:27:49;;;;;;;5.03;3.53;;;;;;;;;;6146979;22;20043;-67
2023/07/08 08:30:15;;;;;;;5.95;3.80;;;;;;;;;;6148283;22;20100;-67
2023/07/08 08:32:41;;;;;;;7.65;3.90;;;;;;;;;;6148099;23;20060;-66
2023/07/08 08:35:07;;;;;;;7.10;3.95;;;;;;;;;;6148310;23;20014;-67
2023/07/08 08:37:33;;;;;;;11.93;4.43;;;;;;;;;;6147609;22;20056;-67
2023/07/08 08:39:59;;;;;;;7.38;4.53;;;;;;;;;;6148051;22;20028;-67
2023/07/08 08:42:40;;;;;;;5.05;3.35;;;;;;;;;;6148140;23;20010;-67
2023/07/08 08:45:11;;;;;;;5.10;3.55;;;;;;;;;;6122184;23;20009;-68
2023/07/08 08:47:42;;;;;;;5.65;4.00;;;;;;;;;;6147596;23;20040;-68
2023/07/08 08:50:17;;;;;;;6.00;4.18;;;;;;;;;;6147681;23;20107;-68
2023/07/08 08:52:43;;;;;;;5.28;3.78;;;;;;;;;;6146519;23;20018;-68
2023/07/08 08:55:14;;;;;;;4.82;3.40;;;;;;;;;;6147379;23;20386;-67
2023/07/08 08:57:57;;;;;;;6.13;3.50;;;;;;;;;;6147005;22;20021;-66
2023/07/08 09:00:46;;;;;;;4.70;3.30;;;;;;;;;;6147703;23;20017;-67
2023/07/08 09:03:18;;;;;;;5.75;4.05;;;;;;;;;;6148033;23;20017;-67
2023/07/08 09:05:45;;;;;;;6.07;3.78;;;;;;;;;;6147461;23;20022;-67
2023/07/08 09:08:11;;;;;;;5.35;3.50;;;;;;;;;;6147689;23;20002;-67
2023/07/08 09:11:01;;;;;;;5.40;3.50;;;;;;;;;;6148114;23;20037;-66
2023/07/08 09:13:32;;;;;;;8.77;4.13;;;;;;;;;;6147519;23;20024;-66
2023/07/08 09:16:24;;;;;;;6.15;3.95;;;;;;;;;;6147430;23;20076;-67
2023/07/08 09:19:08;;;;;;;5.70;3.80;;;;;;;;;;6147667;23;20020;-68
2023/07/08 09:21:43;;;;;;;5.45;3.83;;;;;;;;;;6146070;23;20014;-68
2023/07/08 09:24:24;;;;;;;8.02;3.80;;;;;;;;;;6147943;23;20195;-67
2023/07/08 09:26:51;;;;;;;7.35;4.13;;;;;;;;;;6147334;23;20017;-65
2023/07/08 09:29:17;;;;;;;7.70;3.80;;;;;;;;;;6147759;23;20002;-66
2023/07/08 09:31:43;;;;;;;4.38;3.65;;;;;;;;;;6147274;23;20017;-66
2023/07/08 09:34:11;;;;;;;6.75;3.67;;;;;;;;;;6147139;23;20352;-67
2023/07/08 09:36:41;;;;;;;4.88;3.60;;;;;;;;;;6147154;23;20017;-66
2023/07/08 09:39:10;;;;;;;6.30;3.63;;;;;;;;;;6147580;23;20036;-66
2023/07/08 09:41:36;;;;;;;5.95;3.47;;;;;;;;;;6147929;23;20025;-67
2023/07/08 09:44:06;;;;;;;7.90;4.40;;;;;;;;;;6147758;23;20319;-68
2023/07/08 09:46:37;;;;;;;6.75;3.80;;;;;;;;;;6147219;23;20025;-67
2023/07/08 09:49:19;;;;;;;6.07;4.10;;;;;;;;;;6147568;23;20022;-66
2023/07/08 09:51:46;;;;;;;7.00;4.10;;;;;;;;;;6147194;23;20013;-66
2023/07/08 09:54:12;;;;;;;6.55;3.90;;;;;;;;;;6146525;23;20422;-67
2023/07/08 09:56:44;;;;;;;7.88;3.70;;;;;;;;;;6147582;23;20063;-66
2023/07/08 09:59:14;;;;;;;5.80;3.80;;;;;;;;;;6146526;23;20496;-66
2023/07/08 10:01:43;;;;;;;6.30;3.90;;;;;;;;;;6148223;23;20017;-66
2023/07/08 10:04:09;;;;;;;5.38;3.90;;;;;;;;;;6148173;23;20004;-67
2023/07/08 10:06:35;;;;;;;7.63;4.13;;;;;;;;;;6147257;23;20300;-66
2023/07/08 10:09:11;;;;;;;4.55;3.80;;;;;;;;;;6148221;23;20431;-66
2023/07/08 10:11:47;;;;;;;6.50;3.55;;;;;;;;;;6148366;23;20005;-67
2023/07/08 10:14:34;;;;;;;4.95;3.80;;;;;;;;;;6149036;23;20013;-66
2023/07/08 10:17:01;;;;;;;5.80;3.80;;;;;;;;;;6148763;23;20033;-66
2023/07/08 10:19:26;;;;;;;6.90;4.00;;;;;;;;;;6150019;23;20435;-66
2023/07/08 10:22:13;;;;;;;4.90;3.60;;;;;;;;;;6150199;23;20084;-67
2023/07/08 10:24:45;;;;;;;9.77;3.85;;;;;;;;;;6150217;23;20006;-67
2023/07/08 10:27:34;;;;;;;6.10;3.80;;;;;;;;;;6150445;23;20014;-66
2023/07/08 10:30:06;;;;;;;7.07;3.85;;;;;;;;;;6150967;23;20362;-66
2023/07/08 10:32:37;;;;;;;6.57;3.87;;;;;;;;;;6150599;23;20028;-67
2023/07/08 10:35:18;;;;;;;9.10;4.10;;;;;;;;;;6150397;23;20013;-67
2023/07/08 10:38:18;;;;;;;7.25;4.20;;;;;;;;;;6150767;23;20010;-67
2023/07/08 10:40:50;;;;;;;6.22;3.65;;;;;;;;;;6150200;23;20435;-67
2023/07/08 10:43:55;;;;;;;7.03;3.53;;;;;;;;;;6150314;23;20010;-68
2023/07/08 10:46:37;;;;;;;10.75;4.20;;;;;;;;;;6150180;23;20016;-66
2023/07/08 10:49:33;;;;;;;10.73;4.22;;;;;;;;;;6148763;23;20010;-68
2023/07/08 10:52:53;;;;;;;6.97;3.78;;;;;;;;;;6149736;23;20009;-67
2023/07/08 10:55:43;;;;;;;9.10;4.32;;;;;;;;;;6181357;23;20447;-65
2023/07/08 10:58:22;;;;;;;6.28;4.30;;;;;;;;;;6181721;23;20009;-67
2023/07/08 11:01:03;;;;;;;6.72;4.22;;;;;;;;;;6158738;23;20096;-66
2023/07/08 11:03:34;;;;;;;5.47;3.95;;;;;;;;;;6150078;23;20081;-66
2023/07/08 11:06:13;;;;;;;13.38;4.30;;;;;;;;;;6150319;23;20021;-67
2023/07/08 11:08:45;;;;;;;5.28;3.60;;;;;;;;;;6150339;23;20013;-67
2023/07/08 11:11:24;;;;;;;5.45;3.83;;;;;;;;;;6150085;23;20059;-68
2023/07/08 11:13:58;;;;;;;6.32;4.35;;;;;;;;;;6150058;23;20066;-67
2023/07/08 11:16:36;;;;;;;6.43;3.63;;;;;;;;;;6150450;23;20016;-67
2023/07/08 11:19:57;;;;;;;6.00;4.03;;;;;;;;;;6150362;23;20080;-67
2023/07/08 11:22:25;;;;;;;7.25;3.58;;;;;;;;;;6116901;23;20425;-67
2023/07/08 11:24:55;;;;;;;7.07;4.30;;;;;;;;;;6150418;23;20331;-67
2023/07/08 11:27:26;;;;;;;9.25;4.47;;;;;;;;;;6149979;23;20010;-66
2023/07/08 11:30:13;;;;;;;5.43;3.50;;;;;;;;;;6149988;23;20017;-67
2023/07/08 11:32:40;;;;;;;7.60;4.20;;;;;;;;;;6150685;23;20009;-69
2023/07/08 11:35:17;;;;;;;8.20;4.22;;;;;;;;;;6149946;23;20002;-68
2023/07/08 11:37:44;;;;;;;5.75;4.00;;;;;;;;;;6150222;23;20014;-67
2023/07/08 11:40:21;;;;;;;5.22;3.80;;;;;;;;;;6149618;23;20419;-69
2023/07/08 11:43:02;;;;;;;7.05;4.07;;;;;;;;;;6150536;23;20076;-69
2023/07/08 11:45:35;;;;;;;6.50;3.60;;;;;;;;;;6124235;23;20340;-67
2023/07/08 11:48:16;;;;;;;6.95;4.20;;;;;;;;;;6150498;23;20107;-68
2023/07/08 11:50:46;;;;;;;5.88;4.18;;;;;;;;;;6150112;23;20013;-67
2023/07/08 11:53:37;;;;;;;5.65;3.75;;;;;;;;;;6150428;23;20010;-65
2023/07/08 11:56:15;;;;;;;9.25;4.03;;;;;;;;;;6177477;23;20343;-68
2023/07/08 11:59:12;;;;;;;4.82;3.75;;;;;;;;;;6150145;23;20009;-69
2023/07/08 12:01:46;;;;;;;7.28;3.88;;;;;;;;;;6150036;23;20046;-69
2023/07/08 12:04:12;;;;;;;9.10;4.28;;;;;;;;;;6149095;23;20041;-67
2023/07/08 12:06:37;;;;;;;4.72;3.65;;;;;;;;;;6149402;23;20082;-69
2023/07/08 12:09:35;;;;;;;6.55;3.85;;;;;;;;;;6150239;23;20010;-67
2023/07/08 12:12:05;;;;;;;9.25;4.07;;;;;;;;;;6149974;23;20080;-68
2023/07/08 12:14:32;;;;;;;5.40;3.58;;;;;;;;;;6149670;23;20009;-70
2023/07/08 12:16:59;;;;;;;5.68;3.83;;;;;;;;;;6148464;23;20014;-68
2023/07/08 12:19:31;;;;;;;6.90;4.25;;;;;;;;;;6149962;23;20014;-68
2023/07/08 12:21:57;;;;;;;;;;;;;;;;;;6150476;23;20013;-69
2023/07/08 12:24:26;;;;;;;6.95;3.95;;;;;;;;;;6149931;23;19912;-69
2023/07/08 12:26:53;;;;;;;10.27;3.88;;;;;;;;;;6172758;23;20079;-68
2023/07/08 12:29:18;;;;;;;6.65;3.72;;;;;;;;;;6149537;23;20002;-69
2023/07/08 12:31:45;;;;;;;6.93;3.60;;;;;;;;;;6149869;23;20024;-69
2023/07/08 12:34:14;;;;;;;6.28;3.78;;;;;;;;;;6149057;23;20005;-69
2023/07/08 12:36:41;;;;;;;7.88;3.80;;;;;;;;;;6149425;23;20116;-69
2023/07/08 12:39:11;;;;;;;5.53;3.88;;;;;;;;;;6149465;23;20080;-68
2023/07/08 12:41:37;;;;;;;7.38;3.70;;;;;;;;;;6149752;23;20347;-69
2023/07/08 12:44:14;;;;;;;5.60;4.00;;;;;;;;;;6149460;23;20002;-68
2023/07/08 12:46:40;;;;;;;5.57;3.35;;;;;;;;;;6149740;23;20013;-68
2023/07/08 12:49:05;;;;;;;5.53;3.67;;;;;;;;;;6149801;23;20005;-68
2023/07/08 12:51:31;;;;;;;6.25;3.78;;;;;;;;;;6149673;23;20013;-68
2023/07/08 12:53:57;;;;;;;11.25;5.15;;;;;;;;;;6149713;23;20029;-68
2023/07/08 12:56:23;;;;;;;5.43;3.88;;;;;;;;;;6149216;23;20037;-68
2023/07/08 12:58:53;;;;;;;5.50;3.53;;;;;;;;;;6149698;23;20055;-67
2023/07/08 13:01:22;;;;;;;6.78;3.92;;;;;;;;;;6150075;23;20175;-68
2023/07/08 13:03:52;;;;;;;;;;;;;;;;;;6150259;23;20131;-68
2023/07/08 13:06:22;;;;;;;8.70;3.60;;;;;;;;;;6149400;23;19915;-68
2023/07/08 13:08:49;;;;;;;6.03;3.97;;;;;;;;;;6149540;23;20041;-68
2023/07/08 13:11:17;;;;;;;6.45;3.42;;;;;;;;;;6149417;23;20076;-67
2023/07/08 13:13:58;;;;;;;7.15;3.50;;;;;;;;;;6148805;23;20084;-67
2023/07/08 13:16:33;;;;;;;8.95;4.35;;;;;;;;;;6150249;23;20393;-67
2023/07/08 13:19:00;;;;;;;5.32;3.55;;;;;;;;;;6150368;23;20017;-66
2023/07/08 13:21:27;;;;;;;6.40;3.67;;;;;;;;;;6149908;23;20466;-67
2023/07/08 13:23:54;;;;;;;5.15;3.58;;;;;;;;;;6150162;23;20096;-66
2023/07/08 13:26:25;;;;;;;5.70;4.00;;;;;;;;;;6150425;23;20334;-66
2023/07/08 13:29:00;;;;;;;6.50;3.63;;;;;;;;;;6150142;23;20316;-68
2023/07/08 13:31:33;;;;;;;7.88;3.90;;;;;;;;;;6150690;23;20342;-68
2023/07/08 13:34:09;;;;;;;5.75;3.25;;;;;;;;;;6150227;23;20067;-68
2023/07/08 13:36:38;;;;;;;7.78;4.13;;;;;;;;;;6149560;23;20013;-68
2023/07/08 13:39:09;;;;;;;6.05;3.42;;;;;;;;;;6150419;23;19997;-68
2023/07/08 13:41:36;;;;;;;5.45;3.20;;;;;;;;;;6149961;23;20117;-67
2023/07/08 13:44:06;;;;;;;7.65;3.72;;;;;;;;;;6149689;23;20431;-68
2023/07/08 13:46:37;;;;;;;7.32;3.47;;;;;;;;;;6145951;23;20013;-68
2023/07/08 13:49:11;;;;;;;4.93;3.80;;;;;;;;;;6147820;23;20017;-69
2023/07/08 13:51:39;;;;;;;6.03;3.65;;;;;;;;;;6147473;23;20059;-68
2023/07/08 13:54:32;;;;;;;7.70;3.35;;;;;;;;;;6146531;22;20424;-69
2023/07/08 13:57:01;;;;;;;10.60;4.10;;;;;;;;;;6147255;23;20444;-68
2023/07/08 13:59:26;;;;;;;10.65;4.03;;;;;;;;;;6147558;23;20051;-68
2023/07/08 14:01:55;;;;;;;6.07;3.90;;;;;;;;;;6147704;23;20010;-70
2023/07/08 14:04:35;;;;;;;12.55;3.78;;;;;;;;;;6148216;23;20005;-67
2023/07/08 14:07:01;;;;;;;4.85;3.38;;;;;;;;;;6146190;23;20124;-71
2023/07/08 14:09:26;;;;;;;6.13;3.40;;;;;;;;;;6123282;23;20497;-72
2023/07/08 14:11:52;;;;;;;5.03;3.45;;;;;;;;;;6149903;23;20088;-69
2023/07/08 14:14:18;;;;;;;5.53;3.42;;;;;;;;;;6150086;23;20264;-68
2023/07/08 14:16:47;;;;;;;5.55;3.50;;;;;;;;;;6149666;23;20147;-71
2023/07/08 14:19:19;;;;;;;6.50;3.53;;;;;;;;;;6149757;23;20006;-69
2023/07/08 14:21:45;;;;;;;6.43;3.28;;;;;;;;;;6149742;23;20013;-69
2023/07/08 14:24:13;;;;;;;7.65;3.75;;;;;;;;;;6149773;23;20055;-68
2023/07/08 14:26:44;;;;;;;4.93;3.70;;;;;;;;;;6147953;23;20116;-71
2023/07/08 14:29:11;;;;;;;8.32;3.63;;;;;;;;;;6149033;23;20339;-70
2023/07/08 14:31:37;;;;;;;5.78;3.75;;;;;;;;;;6149285;23;20033;-69
2023/07/08 14:34:06;;;;;;;8.63;3.65;;;;;;;;;;6149311;23;20043;-68
2023/07/08 14:36:32;;;;;;;8.82;3.50;;;;;;;;;;6123063;23;20083;-68
2023/07/08 14:38:58;;;;;;;5.72;3.75;;;;;;;;;;6149388;23;20028;-68
2023/07/08 14:41:25;;;;;;;7.07;3.80;;;;;;;;;;6149585;23;20012;-69
2023/07/08 14:43:51;;;;;;;7.78;3.50;;;;;;;;;;6148721;23;20382;-69
2023/07/08 14:46:16;;;;;;;5.93;3.60;;;;;;;;;;6148557;23;20010;-69
2023/07/08 14:48:42;;;;;;;6.88;3.72;;;;;;;;;;6149063;23;20084;-69
2023/07/08 14:51:08;;;;;;;4.68;3.33;;;;;;;;;;6149637;22;20187;-68
2023/07/08 14:53:34;;;;;;;14.65;3.92;;;;;;;;;;6149366;23;20193;-68
2023/07/08 14:56:06;;;;;;;6.18;3.22;;;;;;;;;;6148761;23;20106;-69